createdAt,value
2018-04-26T00:00:55.018Z,1005.83
2018-04-26T00:01:54.915Z,1005.81
2018-04-26T00:02:54.810Z,1005.85
2018-04-26T00:03:54.708Z,1005.81
2018-04-26T00:04:54.616Z,1005.82
2018-04-26T00:05:54.516Z,1005.82
2018-04-26T00:06:54.409Z,1005.79
2018-04-26T00:07:54.306Z,1005.85
2018-04-26T00:08:54.202Z,1005.84
2018-04-26T00:09:54.112Z,1005.83
2018-04-26T00:10:54.010Z,1005.83
2018-04-26T00:11:53.906Z,1005.83
2018-04-26T00:12:53.804Z,1005.83
2018-04-26T00:13:53.700Z,1005.83
2018-04-26T00:14:53.607Z,1005.81
2018-04-26T00:15:53.506Z,1005.80
2018-04-26T00:16:53.401Z,1005.77
2018-04-26T00:17:53.298Z,1005.73
2018-04-26T00:18:53.195Z,1005.75
2018-04-26T00:19:53.093Z,1005.80
2018-04-26T00:20:53.001Z,1005.76
2018-04-26T00:21:52.898Z,1005.80
2018-04-26T00:22:52.794Z,1005.72
2018-04-26T00:23:52.691Z,1005.74
2018-04-26T00:24:52.588Z,1005.79
2018-04-26T00:25:52.485Z,1005.73
2018-04-26T00:26:52.392Z,1005.73
2018-04-26T00:27:52.290Z,1005.75
2018-04-26T00:28:52.186Z,1005.74
2018-04-26T00:29:52.082Z,1005.77
2018-04-26T00:30:51.980Z,1005.79
2018-04-26T00:31:51.878Z,1005.80
2018-04-26T00:32:51.785Z,1005.77
2018-04-26T00:33:51.683Z,1005.79
2018-04-26T00:34:51.579Z,1005.83
2018-04-26T00:35:51.477Z,1005.87
2018-04-26T00:36:51.381Z,1005.89
2018-04-26T00:37:51.281Z,1005.86
2018-04-26T00:38:51.178Z,1005.89
2018-04-26T00:39:51.075Z,1005.88
2018-04-26T00:40:50.971Z,1005.89
2018-04-26T00:41:50.868Z,1005.82
2018-04-26T00:42:50.765Z,1005.83
2018-04-26T00:43:50.661Z,1005.85
2018-04-26T00:44:50.571Z,1005.81
2018-04-26T00:45:50.468Z,1005.82
2018-04-26T00:46:50.365Z,1005.79
2018-04-26T00:47:50.261Z,1005.76
2018-04-26T00:48:50.159Z,1005.75
2018-04-26T00:49:50.066Z,1005.77
2018-04-26T00:50:49.963Z,1005.76
2018-04-26T00:51:49.860Z,1005.75
2018-04-26T00:52:50.006Z,1005.77
2018-04-26T00:53:49.655Z,1005.77
2018-04-26T00:54:49.563Z,1005.74
2018-04-26T00:55:49.447Z,1005.78
2018-04-26T00:56:49.343Z,1005.79
2018-04-26T00:57:49.253Z,1005.86
2018-04-26T00:58:49.149Z,1005.81
2018-04-26T00:59:49.046Z,1005.77
2018-04-26T01:00:48.944Z,1005.77
2018-04-26T01:01:48.840Z,1005.76
2018-04-26T01:02:48.737Z,1005.76
2018-04-26T01:03:48.633Z,1005.80
2018-04-26T01:04:48.542Z,1005.78
2018-04-26T01:05:48.438Z,1005.75
2018-04-26T01:06:48.334Z,1005.76
2018-04-26T01:07:48.231Z,1005.78
2018-04-26T01:08:48.128Z,1005.83
2018-04-26T01:09:48.025Z,1005.79
2018-04-26T01:10:47.922Z,1005.81
2018-04-26T01:11:47.819Z,1005.83
2018-04-26T01:12:47.728Z,1005.83
2018-04-26T01:13:47.625Z,1005.87
2018-04-26T01:14:47.523Z,1005.87
2018-04-26T01:15:47.419Z,1005.86
2018-04-26T01:16:47.316Z,1005.88
2018-04-26T01:17:47.214Z,1005.86
2018-04-26T01:18:47.109Z,1005.82
2018-04-26T01:19:47.005Z,1005.81
2018-04-26T01:20:46.916Z,1005.82
2018-04-26T01:21:46.810Z,1005.83
2018-04-26T01:22:47.008Z,1005.82
2018-04-26T01:23:46.603Z,1005.84
2018-04-26T01:24:46.500Z,1005.85
2018-04-26T01:25:46.398Z,1005.83
2018-04-26T01:26:46.295Z,1005.83
2018-04-26T01:27:46.194Z,1005.82
2018-04-26T01:28:46.100Z,1005.82
2018-04-26T01:29:45.997Z,1005.82
2018-04-26T01:30:45.893Z,1005.81
2018-04-26T01:31:45.791Z,1005.80
2018-04-26T01:32:45.698Z,1005.82
2018-04-26T01:33:45.584Z,1005.78
2018-04-26T01:34:45.480Z,1005.81
2018-04-26T01:35:45.378Z,1005.80
2018-04-26T01:36:45.276Z,1005.79
2018-04-26T01:37:45.182Z,1005.80
2018-04-26T01:38:45.080Z,1005.80
2018-04-26T01:39:44.977Z,1005.77
2018-04-26T01:40:44.872Z,1005.82
2018-04-26T01:41:44.773Z,1005.75
2018-04-26T01:42:44.666Z,1005.82
2018-04-26T01:43:44.562Z,1005.81
2018-04-26T01:44:44.463Z,1005.86
2018-04-26T01:45:44.356Z,1005.81
2018-04-26T01:46:44.253Z,1005.85
2018-04-26T01:47:44.155Z,1005.86
2018-04-26T01:48:44.060Z,1005.80
2018-04-26T01:49:43.956Z,1005.81
2018-04-26T01:50:43.853Z,1005.77
2018-04-26T01:51:43.750Z,1005.82
2018-04-26T01:52:43.645Z,1005.83
2018-04-26T01:53:43.543Z,1005.82
2018-04-26T01:54:43.439Z,1005.83
2018-04-26T01:55:43.336Z,1005.82
2018-04-26T01:56:43.233Z,1005.84
2018-04-26T01:57:43.131Z,1005.80
2018-04-26T01:58:43.038Z,1005.84
2018-04-26T01:59:42.938Z,1005.83
2018-04-26T02:00:42.832Z,1005.81
2018-04-26T02:01:42.728Z,1005.82
2018-04-26T02:02:42.638Z,1005.80
2018-04-26T02:03:42.523Z,1005.84
2018-04-26T02:04:42.418Z,1005.81
2018-04-26T02:05:42.315Z,1005.85
2018-04-26T02:06:42.211Z,1005.86
2018-04-26T02:07:42.108Z,1005.84
2018-04-26T02:08:42.005Z,1005.86
2018-04-26T02:09:41.904Z,1005.89
2018-04-26T02:10:41.811Z,1005.92
2018-04-26T02:11:41.708Z,1005.91
2018-04-26T02:12:41.605Z,1005.89
2018-04-26T02:13:41.502Z,1005.89
2018-04-26T02:14:41.399Z,1005.91
2018-04-26T02:15:41.302Z,1005.87
2018-04-26T02:16:41.191Z,1005.88
2018-04-26T02:17:41.088Z,1005.85
2018-04-26T02:18:40.985Z,1005.83
2018-04-26T02:19:40.882Z,1005.85
2018-04-26T02:20:40.779Z,1005.86
2018-04-26T02:21:40.676Z,1005.85
2018-04-26T02:22:40.823Z,1005.81
2018-04-26T02:23:40.470Z,1005.84
2018-04-26T02:24:40.381Z,1005.86
2018-04-26T02:25:40.275Z,1005.82
2018-04-26T02:26:40.170Z,1005.79
2018-04-26T02:27:40.067Z,1005.81
2018-04-26T02:28:39.963Z,1005.78
2018-04-26T02:29:39.865Z,1005.79
2018-04-26T02:30:39.757Z,1005.77
2018-04-26T02:31:39.653Z,1005.81
2018-04-26T02:32:39.551Z,1005.81
2018-04-26T02:33:39.447Z,1005.83
2018-04-26T02:34:39.345Z,1005.79
2018-04-26T02:35:39.241Z,1005.78
2018-04-26T02:36:39.137Z,1005.78
2018-04-26T02:37:39.039Z,1005.78
2018-04-26T02:38:38.944Z,1005.76
2018-04-26T02:39:38.841Z,1005.76
2018-04-26T02:40:38.738Z,1005.76
2018-04-26T02:41:38.635Z,1005.78
2018-04-26T02:42:38.531Z,1005.78
2018-04-26T02:43:38.433Z,1005.79
2018-04-26T02:44:38.324Z,1005.78
2018-04-26T02:45:38.221Z,1005.80
2018-04-26T02:46:38.117Z,1005.81
2018-04-26T02:47:38.014Z,1005.80
2018-04-26T02:48:37.926Z,1005.80
2018-04-26T02:49:37.808Z,1005.76
2018-04-26T02:50:37.705Z,1005.78
2018-04-26T02:51:37.601Z,1005.74
2018-04-26T02:52:37.497Z,1005.81
2018-04-26T02:53:37.414Z,1005.79
2018-04-26T02:54:37.302Z,1005.79
2018-04-26T02:55:37.199Z,1005.80
2018-04-26T02:56:37.111Z,1005.78
2018-04-26T02:57:36.992Z,1005.76
2018-04-26T02:58:36.890Z,1005.74
2018-04-26T02:59:36.786Z,1005.74
2018-04-26T03:00:36.696Z,1005.77
2018-04-26T03:01:36.579Z,1005.74
2018-04-26T03:02:36.476Z,1005.73
2018-04-26T03:03:36.373Z,1005.76
2018-04-26T03:04:36.270Z,1005.75
2018-04-26T03:05:36.169Z,1005.74
2018-04-26T03:06:36.062Z,1005.74
2018-04-26T03:07:35.960Z,1005.76
2018-04-26T03:08:35.863Z,1005.77
2018-04-26T03:09:35.765Z,1005.69
2018-04-26T03:10:35.664Z,1005.71
2018-04-26T03:11:35.559Z,1005.72
2018-04-26T03:12:35.455Z,1005.72
2018-04-26T03:13:35.353Z,1005.73
2018-04-26T03:14:35.249Z,1005.72
2018-04-26T03:15:35.145Z,1005.76
2018-04-26T03:16:35.042Z,1005.77
2018-04-26T03:17:34.940Z,1005.76
2018-04-26T03:18:34.846Z,1005.72
2018-04-26T03:19:34.732Z,1005.70
2018-04-26T03:20:34.634Z,1005.68
2018-04-26T03:21:34.539Z,1005.70
2018-04-26T03:22:34.435Z,1005.64
2018-04-26T03:23:34.349Z,1005.65
2018-04-26T03:24:34.228Z,1005.67
2018-04-26T03:25:34.124Z,1005.72
2018-04-26T03:26:34.020Z,1005.67
2018-04-26T03:27:33.917Z,1005.68
2018-04-26T03:28:33.813Z,1005.65
2018-04-26T03:29:33.710Z,1005.68
2018-04-26T03:30:33.608Z,1005.68
2018-04-26T03:31:33.513Z,1005.70
2018-04-26T03:32:33.400Z,1005.70
2018-04-26T03:33:33.297Z,1005.67
2018-04-26T03:34:33.195Z,1005.68
2018-04-26T03:35:33.091Z,1005.64
2018-04-26T03:36:32.989Z,1005.69
2018-04-26T03:37:32.899Z,1005.69
2018-04-26T03:38:32.793Z,1005.70
2018-04-26T03:39:32.692Z,1005.71
2018-04-26T03:40:32.590Z,1005.71
2018-04-26T03:41:32.484Z,1005.71
2018-04-26T03:42:32.381Z,1005.70
2018-04-26T03:43:32.278Z,1005.73
2018-04-26T03:44:32.177Z,1005.70
2018-04-26T03:45:32.074Z,1005.72
2018-04-26T03:46:31.967Z,1005.71
2018-04-26T03:47:31.863Z,1005.64
2018-04-26T03:48:31.761Z,1005.65
2018-04-26T03:49:31.658Z,1005.66
2018-04-26T03:50:31.555Z,1005.66
2018-04-26T03:51:31.451Z,1005.65
2018-04-26T03:52:31.347Z,1005.64
2018-04-26T03:53:31.244Z,1005.65
2018-04-26T03:54:31.153Z,1005.63
2018-04-26T03:55:31.084Z,1005.64
2018-04-26T03:56:30.947Z,1005.65
2018-04-26T03:57:31.143Z,1005.63
2018-04-26T03:58:30.755Z,1005.62
2018-04-26T03:59:30.637Z,1005.64
2018-04-26T04:00:30.533Z,1005.60
2018-04-26T04:01:30.442Z,1005.59
2018-04-26T04:02:30.327Z,1005.58
2018-04-26T04:03:30.223Z,1005.54
2018-04-26T04:04:30.120Z,1005.58
2018-04-26T04:05:30.019Z,1005.57
2018-04-26T04:06:29.914Z,1005.55
2018-04-26T04:07:29.810Z,1005.59
2018-04-26T04:08:29.707Z,1005.61
2018-04-26T04:09:29.603Z,1005.60
2018-04-26T04:10:29.501Z,1005.58
2018-04-26T04:11:29.397Z,1005.62
2018-04-26T04:12:29.306Z,1005.65
2018-04-26T04:13:29.204Z,1005.63
2018-04-26T04:14:29.101Z,1005.65
2018-04-26T04:15:28.996Z,1005.65
2018-04-26T04:16:28.894Z,1005.61
2018-04-26T04:17:29.041Z,1005.62
2018-04-26T04:18:28.686Z,1005.61
2018-04-26T04:19:28.583Z,1005.62
2018-04-26T04:20:28.479Z,1005.64
2018-04-26T04:21:28.380Z,1005.68
2018-04-26T04:22:28.275Z,1005.66
2018-04-26T04:23:28.182Z,1005.63
2018-04-26T04:24:28.078Z,1005.65
2018-04-26T04:25:27.975Z,1005.61
2018-04-26T04:26:27.872Z,1005.59
2018-04-26T04:27:27.769Z,1005.58
2018-04-26T04:28:27.665Z,1005.58
2018-04-26T04:29:27.562Z,1005.60
2018-04-26T04:30:27.509Z,1005.56
2018-04-26T04:31:27.369Z,1005.60
2018-04-26T04:32:27.265Z,1005.59
2018-04-26T04:33:27.163Z,1005.63
2018-04-26T04:34:27.059Z,1005.57
2018-04-26T04:35:26.955Z,1005.62
2018-04-26T04:36:26.857Z,1005.64
2018-04-26T04:37:26.749Z,1005.64
2018-04-26T04:38:26.659Z,1005.62
2018-04-26T04:39:26.554Z,1005.62
2018-04-26T04:40:26.450Z,1005.66
2018-04-26T04:41:26.348Z,1005.66
2018-04-26T04:42:26.250Z,1005.68
2018-04-26T04:43:26.156Z,1005.66
2018-04-26T04:44:26.052Z,1005.65
2018-04-26T04:45:25.947Z,1005.64
2018-04-26T04:46:25.844Z,1005.60
2018-04-26T04:47:25.741Z,1005.60
2018-04-26T04:48:25.638Z,1005.64
2018-04-26T04:49:25.548Z,1005.67
2018-04-26T04:50:25.455Z,1005.67
2018-04-26T04:51:25.354Z,1005.65
2018-04-26T04:52:25.235Z,1005.74
2018-04-26T04:53:25.132Z,1005.76
2018-04-26T04:54:25.030Z,1005.72
2018-04-26T04:55:24.939Z,1005.75
2018-04-26T04:56:24.837Z,1005.75
2018-04-26T04:57:24.735Z,1005.73
2018-04-26T04:58:24.630Z,1005.73
2018-04-26T04:59:24.538Z,1005.68
2018-04-26T05:00:24.447Z,1005.72
2018-04-26T05:01:24.335Z,1005.74
2018-04-26T05:02:24.228Z,1005.74
2018-04-26T05:03:24.126Z,1005.78
2018-04-26T05:04:24.034Z,1005.76
2018-04-26T05:05:23.931Z,1005.73
2018-04-26T05:06:23.828Z,1005.76
2018-04-26T05:07:23.841Z,1005.71
2018-04-26T05:08:23.634Z,1005.68
2018-04-26T05:09:23.543Z,1005.73
2018-04-26T05:10:23.440Z,1005.72
2018-04-26T05:11:23.336Z,1005.74
2018-04-26T05:12:23.233Z,1005.78
2018-04-26T05:13:23.130Z,1005.79
2018-04-26T05:14:23.039Z,1005.81
2018-04-26T05:15:22.935Z,1005.82
2018-04-26T05:16:22.837Z,1005.85
2018-04-26T05:17:22.742Z,1005.84
2018-04-26T05:18:22.638Z,1005.84
2018-04-26T05:19:22.535Z,1005.92
2018-04-26T05:20:22.432Z,1005.91
2018-04-26T05:21:22.340Z,1005.95
2018-04-26T05:22:22.250Z,1005.98
2018-04-26T05:23:22.133Z,1005.97
2018-04-26T05:24:22.044Z,1005.95
2018-04-26T05:25:21.941Z,1005.94
2018-04-26T05:26:21.836Z,1005.94
2018-04-26T05:27:21.734Z,1005.96
2018-04-26T05:28:21.642Z,1005.93
2018-04-26T05:29:21.539Z,1005.92
2018-04-26T05:30:21.448Z,1005.94
2018-04-26T05:31:21.352Z,1005.90
2018-04-26T05:32:21.241Z,1005.91
2018-04-26T05:33:21.139Z,1005.96
2018-04-26T05:34:21.036Z,1005.95
2018-04-26T05:35:20.944Z,1005.98
2018-04-26T05:36:20.840Z,1005.97
2018-04-26T05:37:20.737Z,1005.98
2018-04-26T05:38:20.633Z,1006.06
2018-04-26T05:39:20.543Z,1006.05
2018-04-26T05:40:20.441Z,1006.04
2018-04-26T05:41:20.337Z,1006.06
2018-04-26T05:42:20.233Z,1006.02
2018-04-26T05:43:20.131Z,1005.98
2018-04-26T05:44:20.038Z,1006.00
2018-04-26T05:45:19.935Z,1006.00
2018-04-26T05:46:19.832Z,1006.00
2018-04-26T05:47:19.806Z,1006.04
2018-04-26T05:48:19.639Z,1005.99
2018-04-26T05:49:19.535Z,1006.02
2018-04-26T05:50:19.431Z,1005.99
2018-04-26T05:51:19.340Z,1005.98
2018-04-26T05:52:19.237Z,1005.96
2018-04-26T05:53:19.134Z,1005.93
2018-04-26T05:54:19.032Z,1005.98
2018-04-26T05:55:18.941Z,1005.97
2018-04-26T05:56:18.841Z,1005.97
2018-04-26T05:57:19.039Z,1006.02
2018-04-26T05:58:18.643Z,1006.01
2018-04-26T05:59:18.540Z,1006.02
2018-04-26T06:00:18.508Z,1006.02
2018-04-26T06:01:18.334Z,1006.05
2018-04-26T06:02:18.244Z,1006.04
2018-04-26T06:03:18.143Z,1006.01
2018-04-26T06:04:18.036Z,1006.05
2018-04-26T06:05:17.946Z,1006.03
2018-04-26T06:06:17.841Z,1006.03
2018-04-26T06:07:17.742Z,1006.08
2018-04-26T06:08:17.649Z,1006.07
2018-04-26T06:09:17.545Z,1006.13
2018-04-26T06:10:17.441Z,1006.12
2018-04-26T06:11:17.368Z,1006.14
2018-04-26T06:12:17.246Z,1006.18
2018-04-26T06:13:17.143Z,1006.15
2018-04-26T06:14:17.053Z,1006.20
2018-04-26T06:15:16.952Z,1006.22
2018-04-26T06:16:16.846Z,1006.19
2018-04-26T06:17:16.755Z,1006.17
2018-04-26T06:18:16.651Z,1006.24
2018-04-26T06:19:16.550Z,1006.20
2018-04-26T06:20:16.459Z,1006.21
2018-04-26T06:21:16.360Z,1006.23
2018-04-26T06:22:16.252Z,1006.27
2018-04-26T06:23:16.160Z,1006.24
2018-04-26T06:24:16.061Z,1006.28
2018-04-26T06:25:15.967Z,1006.25
2018-04-26T06:26:15.864Z,1006.28
2018-04-26T06:27:15.769Z,1006.26
2018-04-26T06:28:15.660Z,1006.29
2018-04-26T06:29:15.566Z,1006.23
2018-04-26T06:30:15.467Z,1006.28
2018-04-26T06:31:15.359Z,1006.29
2018-04-26T06:32:15.269Z,1006.27
2018-04-26T06:33:15.166Z,1006.27
2018-04-26T06:34:15.068Z,1006.27
2018-04-26T06:35:14.971Z,1006.26
2018-04-26T06:36:14.868Z,1006.29
2018-04-26T06:37:15.065Z,1006.28
2018-04-26T06:38:14.675Z,1006.28
2018-04-26T06:39:14.576Z,1006.27
2018-04-26T06:40:14.468Z,1006.24
2018-04-26T06:41:14.376Z,1006.28
2018-04-26T06:42:14.314Z,1006.35
2018-04-26T06:43:14.182Z,1006.28
2018-04-26T06:44:14.078Z,1006.33
2018-04-26T06:45:13.975Z,1006.33
2018-04-26T06:46:13.887Z,1006.32
2018-04-26T06:47:13.780Z,1006.35
2018-04-26T06:48:13.677Z,1006.32
2018-04-26T06:49:13.589Z,1006.31
2018-04-26T06:50:13.483Z,1006.34
2018-04-26T06:51:13.392Z,1006.33
2018-04-26T06:52:13.288Z,1006.32
2018-04-26T06:53:13.186Z,1006.34
2018-04-26T06:54:13.099Z,1006.35
2018-04-26T06:55:12.992Z,1006.36
2018-04-26T06:56:12.901Z,1006.38
2018-04-26T06:57:12.813Z,1006.37
2018-04-26T06:58:12.694Z,1006.35
2018-04-26T06:59:12.605Z,1006.36
2018-04-26T07:00:12.502Z,1006.30
2018-04-26T07:01:12.410Z,1006.34
2018-04-26T07:02:12.306Z,1006.36
2018-04-26T07:03:12.206Z,1006.33
2018-04-26T07:04:12.113Z,1006.26
2018-04-26T07:05:12.010Z,1006.29
2018-04-26T07:06:11.906Z,1006.25
2018-04-26T07:07:11.814Z,1006.25
2018-04-26T07:08:11.714Z,1006.23
2018-04-26T07:09:11.613Z,1006.20
2018-04-26T07:10:11.522Z,1006.22
2018-04-26T07:11:11.415Z,1006.23
2018-04-26T07:12:11.371Z,1006.26
2018-04-26T07:13:11.220Z,1006.27
2018-04-26T07:14:11.117Z,1006.31
2018-04-26T07:15:11.026Z,1006.33
2018-04-26T07:16:10.922Z,1006.29
2018-04-26T07:17:10.820Z,1006.30
2018-04-26T07:18:10.727Z,1006.28
2018-04-26T07:19:10.627Z,1006.27
2018-04-26T07:20:10.522Z,1006.31
2018-04-26T07:21:10.431Z,1006.31
2018-04-26T07:22:10.327Z,1006.32
2018-04-26T07:23:10.236Z,1006.30
2018-04-26T07:24:10.134Z,1006.31
2018-04-26T07:25:10.029Z,1006.30
2018-04-26T07:26:09.943Z,1006.31
2018-04-26T07:27:09.836Z,1006.26
2018-04-26T07:28:09.734Z,1006.26
2018-04-26T07:29:09.641Z,1006.28
2018-04-26T07:30:09.540Z,1006.32
2018-04-26T07:31:09.434Z,1006.31
2018-04-26T07:32:09.347Z,1006.35
2018-04-26T07:33:09.240Z,1006.35
2018-04-26T07:34:09.138Z,1006.37
2018-04-26T07:35:09.060Z,1006.37
2018-04-26T07:36:08.943Z,1006.39
2018-04-26T07:37:08.839Z,1006.37
2018-04-26T07:38:08.750Z,1006.32
2018-04-26T07:39:08.647Z,1006.30
2018-04-26T07:40:08.543Z,1006.33
2018-04-26T07:41:08.452Z,1006.35
2018-04-26T07:42:08.349Z,1006.29
2018-04-26T07:43:08.258Z,1006.31
2018-04-26T07:44:08.155Z,1006.29
2018-04-26T07:45:08.053Z,1006.27
2018-04-26T07:46:07.960Z,1006.28
2018-04-26T07:47:07.857Z,1006.24
2018-04-26T07:48:07.769Z,1006.17
2018-04-26T07:49:07.669Z,1006.25
2018-04-26T07:50:07.571Z,1006.21
2018-04-26T07:51:07.468Z,1006.16
2018-04-26T07:52:07.366Z,1006.14
2018-04-26T07:53:07.303Z,1006.15
2018-04-26T07:54:07.172Z,1006.15
2018-04-26T07:55:07.079Z,1006.10
2018-04-26T07:56:06.977Z,1006.09
2018-04-26T07:57:06.887Z,1006.04
2018-04-26T07:58:06.785Z,1006.08
2018-04-26T07:59:06.691Z,1006.09
2018-04-26T08:00:06.589Z,1006.13
2018-04-26T08:01:06.498Z,1006.03
2018-04-26T08:02:06.406Z,1006.16
2018-04-26T08:03:06.303Z,1006.13
2018-04-26T08:04:06.213Z,1006.17
2018-04-26T08:05:06.110Z,1006.22
2018-04-26T08:06:06.018Z,1006.12
2018-04-26T08:07:05.915Z,1006.18
2018-04-26T08:08:05.824Z,1006.04
2018-04-26T08:09:05.722Z,1006.06
2018-04-26T08:10:05.630Z,1006.12
2018-04-26T08:11:05.540Z,1006.16
2018-04-26T08:12:05.437Z,1006.03
2018-04-26T08:13:05.345Z,1006.03
2018-04-26T08:14:05.242Z,1006.09
2018-04-26T08:15:05.152Z,1006.11
2018-04-26T08:16:05.060Z,1006.22
2018-04-26T08:17:04.957Z,1006.22
2018-04-26T08:18:04.867Z,1006.01
2018-04-26T08:19:04.766Z,1006.00
2018-04-26T08:20:04.672Z,1005.98
2018-04-26T08:21:04.583Z,1006.05
2018-04-26T08:22:04.481Z,1006.04
2018-04-26T08:23:04.387Z,1006.03
2018-04-26T08:24:04.285Z,1006.06
2018-04-26T08:25:04.244Z,1006.08
2018-04-26T08:26:04.103Z,1006.07
2018-04-26T08:27:03.998Z,1006.04
2018-04-26T08:28:03.909Z,1005.98
2018-04-26T08:29:03.820Z,1006.03
2018-04-26T08:30:03.714Z,1006.01
2018-04-26T08:31:03.626Z,1006.01
2018-04-26T08:32:03.520Z,1006.01
2018-04-26T08:33:03.429Z,1005.98
2018-04-26T08:34:03.325Z,1005.97
2018-04-26T08:35:03.224Z,1006.00
2018-04-26T08:36:03.133Z,1006.03
2018-04-26T08:37:03.029Z,1006.07
2018-04-26T08:38:02.939Z,1006.06
2018-04-26T08:39:02.835Z,1006.09
2018-04-26T08:40:02.744Z,1006.10
2018-04-26T08:41:02.641Z,1006.13
2018-04-26T08:42:02.554Z,1006.15
2018-04-26T08:43:02.449Z,1006.18
2018-04-26T08:44:02.344Z,1006.22
2018-04-26T08:45:02.253Z,1006.21
2018-04-26T08:46:02.227Z,1006.22
2018-04-26T08:47:02.058Z,1006.25
2018-04-26T08:48:01.954Z,1006.24
2018-04-26T08:49:01.857Z,1006.18
2018-04-26T08:50:01.761Z,1006.23
2018-04-26T08:51:01.661Z,1006.14
2018-04-26T08:52:01.554Z,1006.19
2018-04-26T08:53:01.462Z,1006.16
2018-04-26T08:54:01.361Z,1006.15
2018-04-26T08:55:01.257Z,1006.18
2018-04-26T08:56:01.166Z,1006.15
2018-04-26T08:57:01.064Z,1006.14
2018-04-26T08:58:00.973Z,1006.21
2018-04-26T08:59:00.869Z,1006.16
2018-04-26T09:00:00.769Z,1006.20
2018-04-26T09:01:00.674Z,1006.24
2018-04-26T09:02:00.570Z,1006.38
2018-04-26T09:03:00.468Z,1006.32
2018-04-26T09:04:00.376Z,1006.31
2018-04-26T09:05:00.272Z,1006.34
2018-04-26T09:06:00.170Z,1006.40
2018-04-26T09:07:00.067Z,1006.46
2018-04-26T09:07:59.975Z,1006.40
2018-04-26T09:08:59.872Z,1006.55
2018-04-26T09:09:59.769Z,1006.51
2018-04-26T09:10:59.666Z,1006.63
2018-04-26T09:11:59.573Z,1006.67
2018-04-26T09:12:59.471Z,1006.59
2018-04-26T09:13:59.368Z,1006.57
2018-04-26T09:14:59.263Z,1006.63
2018-04-26T09:15:59.220Z,1006.67
2018-04-26T09:16:59.070Z,1006.74
2018-04-26T09:17:58.967Z,1006.80
2018-04-26T09:18:58.868Z,1006.92
2018-04-26T09:19:58.760Z,1007.03
2018-04-26T09:20:58.657Z,1006.97
2018-04-26T09:21:58.596Z,1006.96
2018-04-26T09:22:58.462Z,1006.96
2018-04-26T09:23:58.361Z,1006.88
2018-04-26T09:24:58.256Z,1006.98
2018-04-26T09:25:58.152Z,1007.05
2018-04-26T09:26:58.049Z,1007.15
2018-04-26T09:27:57.947Z,1007.06
2018-04-26T09:28:57.855Z,1007.05
2018-04-26T09:29:57.824Z,1007.06
2018-04-26T09:30:57.649Z,1007.16
2018-04-26T09:31:57.550Z,1007.22
2018-04-26T09:32:57.443Z,1007.22
2018-04-26T09:33:57.339Z,1007.30
2018-04-26T09:34:57.242Z,1007.28
2018-04-26T09:35:57.144Z,1007.27
2018-04-26T09:36:57.040Z,1007.32
2018-04-26T09:37:56.937Z,1007.32
2018-04-26T09:38:56.835Z,1007.31
2018-04-26T09:39:56.731Z,1007.45
2018-04-26T09:40:56.628Z,1007.56
2018-04-26T09:41:56.538Z,1007.83
2018-04-26T09:42:56.434Z,1007.92
2018-04-26T09:43:56.332Z,1007.91
2018-04-26T09:44:56.229Z,1007.79
2018-04-26T09:45:56.136Z,1007.93
2018-04-26T09:46:56.033Z,1008.19
2018-04-26T09:47:55.930Z,1007.78
2018-04-26T09:48:55.829Z,1007.46
2018-04-26T09:49:55.742Z,1007.22
2018-04-26T09:50:55.633Z,1007.06
2018-04-26T09:51:55.531Z,1007.07
2018-04-26T09:52:55.441Z,1007.28
2018-04-26T09:53:55.335Z,1007.37
2018-04-26T09:54:55.232Z,1007.24
2018-04-26T09:55:55.143Z,1007.16
2018-04-26T09:56:55.039Z,1007.17
2018-04-26T09:57:54.942Z,1007.31
2018-04-26T09:58:54.843Z,1007.69
2018-04-26T09:59:54.753Z,1008.56
2018-04-26T10:00:54.650Z,1008.75
2018-04-26T10:01:54.547Z,1008.91
2018-04-26T10:02:54.456Z,1008.13
2018-04-26T10:03:54.361Z,1007.56
2018-04-26T10:04:54.262Z,1007.44
2018-04-26T10:05:54.162Z,1006.66
2018-04-26T10:06:54.066Z,1007.62
2018-04-26T10:07:53.977Z,1008.19
2018-04-26T10:08:53.911Z,1006.84
2018-04-26T10:09:53.786Z,1006.77
2018-04-26T10:10:53.677Z,1006.94
2018-04-26T10:11:53.588Z,1007.39
2018-04-26T10:12:53.496Z,1007.39
2018-04-26T10:13:53.394Z,1008.04
2018-04-26T10:14:53.303Z,1007.74
2018-04-26T10:15:53.211Z,1006.69
2018-04-26T10:16:53.151Z,1007.47
2018-04-26T10:17:53.018Z,1008.21
2018-04-26T10:18:52.938Z,1008.27
2018-04-26T10:19:52.822Z,1008.35
2018-04-26T10:20:52.733Z,1007.99
2018-04-26T10:21:52.642Z,1007.71
2018-04-26T10:22:52.551Z,1007.93
2018-04-26T10:23:52.448Z,1008.20
2018-04-26T10:24:52.356Z,1008.05
2018-04-26T10:25:52.265Z,1008.11
2018-04-26T10:26:52.174Z,1007.67
2018-04-26T10:27:52.084Z,1006.25
2018-04-26T10:28:51.993Z,1006.97
2018-04-26T10:29:51.917Z,1006.13
2018-04-26T10:30:51.810Z,1007.84
2018-04-26T10:31:51.726Z,1006.29
2018-04-26T10:32:51.629Z,1006.26
2018-04-26T10:33:51.539Z,1006.31
2018-04-26T10:34:51.448Z,1006.98
2018-04-26T10:35:51.358Z,1006.55
2018-04-26T10:36:51.266Z,1007.08
2018-04-26T10:37:51.176Z,1007.76
2018-04-26T10:38:51.089Z,1006.73
2018-04-26T10:39:50.993Z,1006.27
2018-04-26T10:40:50.907Z,1006.50
2018-04-26T10:41:50.812Z,1006.76
2018-04-26T10:42:50.708Z,1006.76
2018-04-26T10:43:50.618Z,1007.32
2018-04-26T10:44:50.531Z,1007.75
2018-04-26T10:45:50.437Z,1008.20
2018-04-26T10:46:50.345Z,1006.69
2018-04-26T10:47:50.254Z,1006.75
2018-04-26T10:48:50.165Z,1007.21
2018-04-26T10:49:50.074Z,1007.50
2018-04-26T10:50:49.982Z,1007.39
2018-04-26T10:51:49.879Z,1007.16
2018-04-26T10:52:49.787Z,1007.20
2018-04-26T10:53:49.702Z,1007.25
2018-04-26T10:54:49.606Z,1007.23
2018-04-26T10:55:49.516Z,1007.19
2018-04-26T10:56:49.424Z,1007.18
2018-04-26T10:57:49.335Z,1007.08
2018-04-26T10:58:49.242Z,1007.18
2018-04-26T10:59:49.140Z,1007.13
2018-04-26T11:00:49.050Z,1007.11
2018-04-26T11:01:48.957Z,1007.15
2018-04-26T11:02:48.868Z,1007.16
2018-04-26T11:03:48.790Z,1007.19
2018-04-26T11:04:48.674Z,1007.12
2018-04-26T11:05:48.583Z,1007.14
2018-04-26T11:06:48.499Z,1007.24
2018-04-26T11:07:48.401Z,1007.19
2018-04-26T11:08:48.298Z,1007.36
2018-04-26T11:09:48.206Z,1007.27
2018-04-26T11:10:48.117Z,1007.15
2018-04-26T11:11:48.025Z,1007.17
2018-04-26T11:12:47.922Z,1007.22
2018-04-26T11:13:47.831Z,1007.19
2018-04-26T11:14:47.740Z,1007.17
2018-04-26T11:15:47.637Z,1007.20
2018-04-26T11:16:47.547Z,1007.17
2018-04-26T11:17:47.455Z,1007.23
2018-04-26T11:18:47.365Z,1007.21
2018-04-26T11:19:47.263Z,1007.10
2018-04-26T11:20:47.184Z,1007.09
2018-04-26T11:21:47.079Z,1007.13
2018-04-26T11:22:46.977Z,1007.12
2018-04-26T11:23:46.886Z,1007.07
2018-04-26T11:24:46.800Z,1007.00
2018-04-26T11:25:46.706Z,1007.14
2018-04-26T11:26:46.614Z,1007.05
2018-04-26T11:27:46.527Z,1006.86
2018-04-26T11:28:46.420Z,1007.02
2018-04-26T11:29:46.329Z,1007.06
2018-04-26T11:30:46.241Z,1006.95
2018-04-26T11:31:46.148Z,1007.00
2018-04-26T11:32:46.060Z,1007.08
2018-04-26T11:33:45.965Z,1007.10
2018-04-26T11:34:45.875Z,1007.03
2018-04-26T11:35:45.771Z,1007.10
2018-04-26T11:36:45.680Z,1007.22
2018-04-26T11:37:45.590Z,1007.14
2018-04-26T11:38:45.499Z,1007.18
2018-04-26T11:39:45.397Z,1007.24
2018-04-26T11:40:45.305Z,1007.23
2018-04-26T11:41:45.215Z,1007.18
2018-04-26T11:42:45.123Z,1007.30
2018-04-26T11:43:45.020Z,1007.25
2018-04-26T11:44:44.930Z,1007.27
2018-04-26T11:45:44.838Z,1007.28
2018-04-26T11:46:44.813Z,1007.30
2018-04-26T11:47:44.646Z,1007.28
2018-04-26T11:48:44.553Z,1007.30
2018-04-26T11:49:44.450Z,1007.27
2018-04-26T11:50:44.360Z,1007.32
2018-04-26T11:51:44.269Z,1007.26
2018-04-26T11:52:44.166Z,1007.28
2018-04-26T11:53:44.067Z,1007.30
2018-04-26T11:54:43.972Z,1007.38
2018-04-26T11:55:43.884Z,1007.38
2018-04-26T11:56:43.777Z,1007.31
2018-04-26T11:57:43.687Z,1007.34
2018-04-26T11:58:43.584Z,1007.34
2018-04-26T11:59:43.492Z,1007.27
2018-04-26T12:00:43.403Z,1007.34
2018-04-26T12:01:43.299Z,1007.28
2018-04-26T12:02:43.359Z,1007.29
2018-04-26T12:03:43.104Z,1007.31
2018-04-26T12:04:43.014Z,1007.37